Sunrise, Florida
Current Conditions -  °F | °C
As of 10:53 AM on Wednesday 22 Oct 2014 (Local Time) from KFXE Reporting Station
Clear Clear  
Wind Chill: 79°   Ceiling: Unl
Heat Index: 82°   Visibility: 10mi
Dew Point: 69°   Wind: 5mph
Humidity: 72%   Direction: 340°NNW
Pressure: 29.98"   Gusts: NA
Location:  26.15°N, 80.33°W
Report Text: KFXE 221453Z 34004KT 10SM CLR 26/21 A2998 RMK AO2 SLP153 T02610206 51010
Loading
Personal Weather Stations






























Interactive Weather Map
Tropical Storm Tracking
New forecast layout! Learn more

10-Day Weather Forecast

Advertisements
Track Severe Weather on mobile